Time;durP1;ratioP1;P1;durP2;ratioP2;P2;SDS_P1;SDS_P2;PMS_P1;PMS_P2;Temp;Humidity;BMP_temperature;BMP_pressure;BME280_temperature;BME280_humidity;BME280_pressure;Samples;Min_cycle;Max_cycle;Signal;HPM_P1;HPM_P2
2021/07/19 00:00:18;;;;;;;;;;;24.60;62.30;;;;;;5112690;28;20434;-65
2021/07/19 00:02:44;;;;;;;;;;;24.60;62.50;;;;;;5113258;28;20402;-65
2021/07/19 00:05:12;;;;;;;;;;;24.60;62.50;;;;;;5112903;28;19924;-65
2021/07/19 00:07:38;;;;;;;;;;;24.60;62.50;;;;;;5113095;28;19924;-65
2021/07/19 00:10:06;;;;;;;;;;;24.50;62.50;;;;;;5113538;28;20002;-65
2021/07/19 00:12:33;;;;;;;;;;;24.50;62.70;;;;;;5113112;28;19949;-65
2021/07/19 00:14:59;;;;;;;;;;;24.50;62.60;;;;;;5116117;28;19972;-65
2021/07/19 00:17:26;;;;;;;;;;;24.50;62.80;;;;;;5117057;28;19930;-65
2021/07/19 00:19:53;;;;;;;;;;;24.50;62.90;;;;;;5116938;28;19947;-65
2021/07/19 00:22:19;;;;;;;;;;;24.40;63.00;;;;;;5116810;28;20085;-65
2021/07/19 00:24:45;;;;;;;;;;;24.40;63.10;;;;;;5117384;28;19930;-66
2021/07/19 00:27:11;;;;;;;;;;;24.30;63.20;;;;;;5116715;28;20386;-65
2021/07/19 00:29:37;;;;;;;;;;;24.30;63.40;;;;;;5117058;28;19924;-65
2021/07/19 00:32:04;;;;;;;;;;;24.30;63.40;;;;;;5116989;28;19963;-65
2021/07/19 00:34:30;;;;;;;;;;;24.30;63.60;;;;;;5116828;28;19923;-65
2021/07/19 00:36:56;;;;;;;;;;;24.30;63.50;;;;;;5116724;28;20294;-65
2021/07/19 00:39:23;;;;;;;;;;;24.20;63.50;;;;;;5116819;28;19949;-65
2021/07/19 00:41:50;;;;;;;;;;;24.20;63.70;;;;;;5107552;28;20037;-65
2021/07/19 00:44:19;;;;;;;;;;;24.20;63.80;;;;;;5113458;28;20046;-65
2021/07/19 00:46:46;;;;;;;;;;;24.20;63.70;;;;;;5116616;28;20409;-65
2021/07/19 00:49:13;;;;;;;;;;;24.20;63.90;;;;;;5116643;28;19931;-65
2021/07/19 00:51:41;;;;;;;;;;;24.10;63.90;;;;;;5116474;28;20010;-65
2021/07/19 00:54:08;;;;;;;;;;;24.10;64.10;;;;;;5116536;28;19931;-65
2021/07/19 00:56:35;;;;;;;;;;;24.10;64.00;;;;;;5116310;28;19931;-65
2021/07/19 00:59:02;;;;;;;;;;;24.10;64.00;;;;;;5116433;28;19930;-65
2021/07/19 01:01:28;;;;;;;;;;;24.10;64.20;;;;;;5116144;28;19924;-65
2021/07/19 01:03:58;;;;;;;;;;;24.10;64.20;;;;;;5116425;28;19928;-65
2021/07/19 01:06:29;;;;;;;;;;;24.00;64.20;;;;;;5116206;28;19934;-65
2021/07/19 01:08:57;;;;;;;;;;;24.00;64.30;;;;;;5116475;28;20263;-65
2021/07/19 01:11:24;;;;;;;;;;;24.00;64.40;;;;;;5115953;28;19928;-65
2021/07/19 01:13:51;;;;;;;;;;;24.00;64.50;;;;;;5116142;28;19924;-65
2021/07/19 01:16:18;;;;;;;;;;;24.00;64.60;;;;;;5116093;28;19924;-65
2021/07/19 01:18:45;;;;;;;;;;;24.00;64.60;;;;;;5116031;28;19973;-65
2021/07/19 01:21:20;;;;;;;;;;;24.00;64.60;;;;;;5116304;28;20283;-65
2021/07/19 01:24:04;;;;;;;;;;;23.90;64.60;;;;;;5116048;28;19924;-65
2021/07/19 01:26:36;;;;;;;;;;;23.90;64.80;;;;;;5112545;28;19924;-65
2021/07/19 01:29:03;;;;;;;;;;;23.90;64.80;;;;;;5115844;28;20394;-65
2021/07/19 01:31:31;;;;;;;;;;;23.90;64.80;;;;;;5115587;28;19924;-65
2021/07/19 01:33:59;;;;;;;;;;;23.90;65.00;;;;;;5115713;28;19943;-65
2021/07/19 01:36:29;;;;;;;;;;;23.80;64.90;;;;;;5115290;28;20671;-66
2021/07/19 01:38:55;;;;;;;;;;;23.80;65.00;;;;;;5115387;28;20283;-65
2021/07/19 01:41:23;;;;;;;;;;;23.80;65.00;;;;;;5110235;28;19927;-65
2021/07/19 01:43:49;;;;;;;;;;;23.70;65.00;;;;;;5110286;28;19963;-65
2021/07/19 01:46:16;;;;;;;;;;;23.70;65.20;;;;;;5115841;28;20025;-65
2021/07/19 01:48:42;;;;;;;;;;;23.70;65.20;;;;;;5115491;28;20003;-65
2021/07/19 01:51:10;;;;;;;;;;;23.70;65.40;;;;;;5115559;28;20040;-65
2021/07/19 01:53:36;;;;;;;;;;;23.70;65.50;;;;;;5114415;28;19969;-65
2021/07/19 01:56:03;;;;;;;;;;;23.60;65.50;;;;;;5115095;28;19976;-65
2021/07/19 01:58:30;;;;;;;;;;;23.60;65.50;;;;;;5115651;28;19928;-65
2021/07/19 02:00:56;;;;;;;;;;;23.60;65.70;;;;;;5114802;28;20677;-65
2021/07/19 02:03:23;;;;;;;;;;;23.60;65.80;;;;;;5096792;28;20306;-65
2021/07/19 02:05:50;;;;;;;;;;;23.60;65.80;;;;;;5115277;28;19983;-65
2021/07/19 02:08:17;;;;;;;;;;;23.50;66.70;;;;;;5115071;28;19963;-65
2021/07/19 02:10:46;;;;;;;;;;;23.50;65.80;;;;;;5115065;28;19924;-65
2021/07/19 02:13:13;;;;;;;;;;;23.50;65.90;;;;;;5114783;28;19989;-66
2021/07/19 02:15:40;;;;;;;;;;;23.50;66.10;;;;;;5115192;28;20485;-65
2021/07/19 02:18:07;;;;;;;;;;;23.50;66.10;;;;;;5114922;28;19958;-65
2021/07/19 02:20:34;;;;;;;;;;;23.40;66.20;;;;;;5114939;28;20390;-65
2021/07/19 02:23:03;;;;;;;;;;;23.40;66.30;;;;;;5114889;28;19924;-65
2021/07/19 02:25:31;;;;;;;;;;;23.40;66.30;;;;;;5114960;28;20011;-65
2021/07/19 02:27:57;;;;;;;;;;;23.30;66.50;;;;;;5114681;28;19931;-65
2021/07/19 02:30:24;;;;;;;;;;;23.30;66.60;;;;;;5114681;28;20014;-65
2021/07/19 02:32:53;;;;;;;;;;;23.30;66.60;;;;;;5114766;28;19976;-65
2021/07/19 02:35:20;;;;;;;;;;;23.30;67.70;;;;;;5114342;28;19924;-65
2021/07/19 02:37:47;;;;;;;;;;;23.30;66.90;;;;;;5113494;28;20364;-65
2021/07/19 02:40:16;;;;;;;;;;;23.20;66.80;;;;;;5114837;28;19931;-65
2021/07/19 02:42:43;;;;;;;;;;;23.20;66.80;;;;;;5106124;28;19937;-65
2021/07/19 02:45:11;;;;;;;;;;;23.20;66.80;;;;;;5114541;28;19977;-65
2021/07/19 02:47:37;;;;;;;;;;;23.20;66.90;;;;;;5114715;28;19924;-65
2021/07/19 02:50:05;;;;;;;;;;;23.20;67.00;;;;;;5114253;28;19924;-65
2021/07/19 02:52:32;;;;;;;;;;;23.10;67.10;;;;;;5114116;28;20010;-65
2021/07/19 02:54:58;;;;;;;;;;;23.10;67.20;;;;;;5114256;28;19924;-65
2021/07/19 02:57:25;;;;;;;;;;;23.10;67.20;;;;;;5113534;28;20401;-65
2021/07/19 02:59:51;;;;;;;;;;;23.10;67.10;;;;;;5113886;28;20270;-65
2021/07/19 03:02:18;;;;;;;;;;;23.10;67.30;;;;;;5114157;28;19928;-65
2021/07/19 03:04:44;;;;;;;;;;;23.10;67.30;;;;;;5113770;28;19924;-65
2021/07/19 03:07:11;;;;;;;;;;;23.00;67.30;;;;;;5113998;28;19924;-65
2021/07/19 03:09:40;;;;;;;;;;;23.00;67.60;;;;;;5113802;28;20015;-65
2021/07/19 03:12:07;;;;;;;;;;;23.00;67.50;;;;;;5114343;28;19924;-65
2021/07/19 03:14:34;;;;;;;;;;;23.00;67.50;;;;;;5113692;28;19923;-65
2021/07/19 03:17:02;;;;;;;;;;;23.00;67.40;;;;;;5114041;28;19930;-65
2021/07/19 03:19:28;;;;;;;;;;;23.00;67.60;;;;;;5112987;28;19938;-65
2021/07/19 03:21:58;;;;;;;;;;;23.00;68.60;;;;;;5113689;28;20290;-65
2021/07/19 03:24:25;;;;;;;;;;;23.00;67.60;;;;;;5113906;28;20024;-65
2021/07/19 03:26:51;;;;;;;;;;;23.00;67.70;;;;;;5113548;28;19928;-65
2021/07/19 03:29:18;;;;;;;;;;;22.90;67.80;;;;;;5100308;28;19928;-65
2021/07/19 03:31:44;;;;;;;;;;;22.90;67.90;;;;;;5113186;28;20007;-65
2021/07/19 03:34:11;;;;;;;;;;;22.90;67.90;;;;;;5113649;28;19927;-65
2021/07/19 03:36:37;;;;;;;;;;;22.90;68.00;;;;;;5113165;28;19950;-65
2021/07/19 03:39:04;;;;;;;;;;;22.80;68.10;;;;;;5113191;28;20389;-65
2021/07/19 03:41:31;;;;;;;;;;;22.80;68.10;;;;;;5107126;28;19999;-65
2021/07/19 03:43:58;;;;;;;;;;;22.80;68.20;;;;;;5111752;28;20002;-65
2021/07/19 03:46:24;;;;;;;;;;;22.80;68.20;;;;;;5113738;28;19924;-65
2021/07/19 03:48:50;;;;;;;;;;;22.80;68.40;;;;;;5112609;28;19924;-65
2021/07/19 03:51:17;;;;;;;;;;;22.80;68.40;;;;;;5113268;28;20436;-65
2021/07/19 03:53:44;;;;;;;;;;;22.80;68.30;;;;;;5094483;28;19985;-65
2021/07/19 03:56:10;;;;;;;;;;;22.80;68.30;;;;;;5113380;28;20057;-65
2021/07/19 03:58:37;;;;;;;;;;;22.70;68.40;;;;;;5113519;28;20354;-65
2021/07/19 04:01:04;;;;;;;;;;;22.70;68.40;;;;;;5112728;28;19923;-64
2021/07/19 04:03:44;;;;;;;;;;;22.70;68.40;;;;;;5113336;28;19923;-65
2021/07/19 04:06:13;;;;;;;;;;;22.70;68.40;;;;;;5112622;28;19998;-65
2021/07/19 04:08:41;;;;;;;;;;;22.70;68.50;;;;;;5113247;28;20378;-65
2021/07/19 04:11:07;;;;;;;;;;;22.70;68.60;;;;;;5117305;28;19924;-65
2021/07/19 04:13:36;;;;;;;;;;;22.70;68.50;;;;;;5110721;28;20002;-65
2021/07/19 04:16:02;;;;;;;;;;;22.70;68.70;;;;;;5122838;28;19930;-65
2021/07/19 04:18:28;;;;;;;;;;;22.70;68.70;;;;;;5124785;28;20045;-65
2021/07/19 04:20:55;;;;;;;;;;;22.60;68.60;;;;;;5112460;28;19924;-65
2021/07/19 04:23:22;;;;;;;;;;;22.60;68.60;;;;;;5113104;28;19924;-64
2021/07/19 04:25:48;;;;;;;;;;;22.60;68.70;;;;;;5113185;28;19928;-65
2021/07/19 04:28:18;;;;;;;;;;;22.60;68.80;;;;;;5112404;28;19924;-65
2021/07/19 04:30:45;;;;;;;;;;;22.60;68.80;;;;;;5112736;28;20252;-65
2021/07/19 04:33:15;;;;;;;;;;;22.60;68.80;;;;;;5112653;28;19930;-65
2021/07/19 04:35:41;;;;;;;;;;;22.60;68.90;;;;;;5104049;28;19924;-65
2021/07/19 04:38:08;;;;;;;;;;;22.60;68.90;;;;;;5120287;28;19930;-65
2021/07/19 04:40:34;;;;;;;;;;;22.60;69.80;;;;;;5112652;28;20303;-65
2021/07/19 04:43:00;;;;;;;;;;;22.60;68.90;;;;;;5118447;28;20545;-65
2021/07/19 04:45:26;;;;;;;;;;;22.50;68.90;;;;;;5130821;28;20397;-65
2021/07/19 04:47:52;;;;;;;;;;;22.50;68.80;;;;;;5131858;28;19924;-65
2021/07/19 04:50:19;;;;;;;;;;;22.50;69.00;;;;;;5131196;28;20338;-64
2021/07/19 04:52:45;;;;;;;;;;;22.50;69.00;;;;;;5129065;28;20388;-64
2021/07/19 04:55:21;;;;;;;;;;;22.50;69.00;;;;;;5129357;28;19924;-65
2021/07/19 04:57:50;;;;;;;;;;;22.50;69.00;;;;;;5126460;28;20064;-66
2021/07/19 05:00:16;;;;;;;;;;;22.50;68.80;;;;;;5131042;27;19935;-65
2021/07/19 05:02:43;;;;;;;;;;;22.50;68.70;;;;;;5131643;27;20010;-64
2021/07/19 05:05:14;;;;;;;;;;;22.50;68.90;;;;;;5133179;27;19928;-65
2021/07/19 05:07:41;;;;;;;;;;;22.60;69.00;;;;;;5132258;27;20454;-65
2021/07/19 05:10:09;;;;;;;;;;;22.50;68.70;;;;;;5134415;27;19946;-65
2021/07/19 05:12:35;;;;;;;;;;;22.60;68.80;;;;;;5122100;27;20006;-65
2021/07/19 05:15:02;;;;;;;;;;;22.60;68.70;;;;;;5128343;27;20003;-65
2021/07/19 05:17:29;;;;;;;;;;;22.60;68.60;;;;;;5115279;28;19935;-65
2021/07/19 05:19:55;;;;;;;;;;;22.60;68.50;;;;;;5115981;28;20014;-65
2021/07/19 05:22:22;;;;;;;;;;;22.60;68.50;;;;;;5127591;27;20348;-64
2021/07/19 05:24:48;;;;;;;;;;;22.60;68.50;;;;;;5119209;27;20386;-65
2021/07/19 05:27:15;;;;;;;;;;;22.60;68.50;;;;;;5132159;27;19927;-65
2021/07/19 05:29:41;;;;;;;;;;;22.60;68.50;;;;;;5133786;27;20409;-67
2021/07/19 05:32:08;;;;;;;;;;;22.60;68.60;;;;;;5132816;27;19923;-66
2021/07/19 05:34:34;;;;;;;;;;;22.60;68.60;;;;;;5120496;27;19924;-66
2021/07/19 05:37:01;;;;;;;;;;;22.60;68.50;;;;;;5115937;28;20064;-67
2021/07/19 05:39:27;;;;;;;;;;;22.60;68.50;;;;;;5120562;27;19927;-67
2021/07/19 05:41:54;;;;;;;;;;;22.70;68.40;;;;;;5129539;27;19928;-67
2021/07/19 05:44:20;;;;;;;;;;;22.70;68.40;;;;;;5135347;27;19923;-67
2021/07/19 05:46:46;;;;;;;;;;;22.70;68.40;;;;;;5122113;27;19936;-67
2021/07/19 05:49:13;;;;;;;;;;;22.70;68.20;;;;;;5118362;27;19931;-67
2021/07/19 05:51:39;;;;;;;;;;;22.70;68.30;;;;;;5133149;27;20382;-67
2021/07/19 05:54:05;;;;;;;;;;;22.80;68.10;;;;;;5131412;27;19930;-66
2021/07/19 05:56:31;;;;;;;;;;;22.70;68.00;;;;;;5133751;27;20374;-67
2021/07/19 05:58:58;;;;;;;;;;;22.70;68.10;;;;;;5131292;27;19930;-67
2021/07/19 06:01:24;;;;;;;;;;;22.70;68.20;;;;;;5114669;28;20028;-67
2021/07/19 06:03:50;;;;;;;;;;;22.70;68.40;;;;;;5116778;27;19931;-67
2021/07/19 06:06:17;;;;;;;;;;;22.80;68.20;;;;;;5096918;28;19927;-67
2021/07/19 06:08:43;;;;;;;;;;;22.80;68.30;;;;;;5112211;27;19928;-66
2021/07/19 06:11:09;;;;;;;;;;;22.90;68.10;;;;;;5114226;27;20461;-66
2021/07/19 06:13:36;;;;;;;;;;;22.90;68.10;;;;;;5124065;27;19928;-66
2021/07/19 06:16:02;;;;;;;;;;;22.90;68.20;;;;;;5097849;28;19928;-66
2021/07/19 06:18:28;;;;;;;;;;;22.90;68.10;;;;;;5111243;28;20018;-66
2021/07/19 06:20:54;;;;;;;;;;;23.00;68.00;;;;;;5110815;28;20011;-66
2021/07/19 06:23:20;;;;;;;;;;;23.00;67.90;;;;;;5111225;28;20495;-66
2021/07/19 06:25:46;;;;;;;;;;;23.10;67.50;;;;;;5104774;28;20407;-66
2021/07/19 06:28:12;;;;;;;;;;;23.20;67.50;;;;;;5110484;28;20394;-66
2021/07/19 06:30:39;;;;;;;;;;;23.20;67.40;;;;;;5104642;28;19932;-66
2021/07/19 06:33:05;;;;;;;;;;;23.20;67.30;;;;;;5110623;28;19935;-66
2021/07/19 06:35:31;;;;;;;;;;;23.30;67.20;;;;;;5110484;28;19928;-66
2021/07/19 06:37:57;;;;;;;;;;;23.30;66.80;;;;;;5110871;28;19935;-66
2021/07/19 06:40:23;;;;;;;;;;;23.30;67.10;;;;;;5110423;28;19928;-66
2021/07/19 06:42:50;;;;;;;;;;;23.30;67.00;;;;;;5102687;28;19972;-66
2021/07/19 06:45:16;;;;;;;;;;;23.40;66.90;;;;;;5110128;28;20307;-66
2021/07/19 06:47:43;;;;;;;;;;;23.50;66.90;;;;;;5110965;28;19927;-66
2021/07/19 06:50:10;;;;;;;;;;;23.50;66.50;;;;;;5122133;27;19976;-66
2021/07/19 06:52:37;;;;;;;;;;;23.60;66.40;;;;;;5127666;27;19968;-66
2021/07/19 06:55:04;;;;;;;;;;;23.60;65.90;;;;;;5128229;27;19927;-66
2021/07/19 06:57:30;;;;;;;;;;;23.60;66.10;;;;;;5129607;27;20018;-66
2021/07/19 06:59:56;;;;;;;;;;;23.60;66.10;;;;;;5126865;27;19935;-66
2021/07/19 07:02:23;;;;;;;;;;;23.80;65.90;;;;;;5113290;27;19928;-66
2021/07/19 07:04:49;;;;;;;;;;;23.90;65.80;;;;;;5109462;28;20019;-66
2021/07/19 07:07:15;;;;;;;;;;;24.00;65.30;;;;;;5109628;28;20049;-66
2021/07/19 07:09:41;;;;;;;;;;;24.10;64.80;;;;;;5117580;27;19935;-66
2021/07/19 07:12:07;;;;;;;;;;;24.10;65.50;;;;;;5118617;27;19928;-66
2021/07/19 07:14:33;;;;;;;;;;;24.20;64.40;;;;;;5107372;27;19940;-66
2021/07/19 07:16:59;;;;;;;;;;;24.30;64.40;;;;;;5110272;28;20414;-66
2021/07/19 07:19:26;;;;;;;;;;;24.40;64.20;;;;;;5109153;28;19935;-67
2021/07/19 07:21:53;;;;;;;;;;;24.50;64.10;;;;;;5110013;28;19928;-66
2021/07/19 07:24:19;;;;;;;;;;;24.70;63.50;;;;;;5103196;28;19937;-67
2021/07/19 07:26:46;;;;;;;;;;;24.80;63.50;;;;;;5109611;28;19961;-67
2021/07/19 07:29:12;;;;;;;;;;;25.00;62.90;;;;;;5109492;28;19928;-67
2021/07/19 07:31:38;;;;;;;;;;;25.10;61.80;;;;;;5108740;28;19924;-67
2021/07/19 07:34:05;;;;;;;;;;;25.30;61.90;;;;;;5109499;28;19979;-67
2021/07/19 07:36:33;;;;;;;;;;;25.40;61.80;;;;;;5109510;28;19935;-67
2021/07/19 07:39:00;;;;;;;;;;;25.60;61.60;;;;;;5109423;28;20043;-67
2021/07/19 07:41:29;;;;;;;;;;;25.70;61.20;;;;;;5109353;28;19982;-66
2021/07/19 07:43:56;;;;;;;;;;;25.90;59.80;;;;;;5109176;28;20362;-66
2021/07/19 07:46:23;;;;;;;;;;;26.10;59.60;;;;;;5109559;28;19927;-66
2021/07/19 07:48:52;;;;;;;;;;;26.20;59.40;;;;;;5109571;28;19986;-66
2021/07/19 07:51:19;;;;;;;;;;;26.40;59.80;;;;;;5107973;28;19949;-66
2021/07/19 07:53:45;;;;;;;;;;;26.40;58.50;;;;;;5109528;28;19927;-66
2021/07/19 07:56:12;;;;;;;;;;;26.60;58.70;;;;;;5109094;28;20375;-67
2021/07/19 07:58:38;;;;;;;;;;;26.70;57.80;;;;;;5118157;27;20347;-67
2021/07/19 08:01:05;;;;;;;;;;;26.80;56.70;;;;;;5109321;28;20442;-67
2021/07/19 08:03:31;;;;;;;;;;;26.80;57.70;;;;;;5109480;28;19976;-67
2021/07/19 08:05:57;;;;;;;;;;;27.00;57.20;;;;;;5108619;28;20031;-67
2021/07/19 08:08:23;;;;;;;;;;;27.20;56.70;;;;;;5109145;28;20314;-67
2021/07/19 08:10:50;;;;;;;;;;;27.40;55.20;;;;;;5106800;28;20307;-67
2021/07/19 08:13:16;;;;;;;;;;;27.40;54.70;;;;;;5109159;28;19928;-67
2021/07/19 08:15:47;;;;;;;;;;;27.40;54.10;;;;;;5106176;28;19928;-67
2021/07/19 08:18:14;;;;;;;;;;;27.40;54.90;;;;;;5105396;28;20387;-67
2021/07/19 08:20:41;;;;;;;;;;;27.50;55.00;;;;;;5105871;28;19928;-67
2021/07/19 08:23:07;;;;;;;;;;;27.50;54.00;;;;;;5109134;28;20060;-67
2021/07/19 08:25:33;;;;;;;;;;;27.60;54.80;;;;;;5104305;28;19980;-67
2021/07/19 08:27:59;;;;;;;;;;;27.60;54.20;;;;;;5108622;28;19927;-67
2021/07/19 08:30:25;;;;;;;;;;;27.80;53.50;;;;;;5103179;28;19934;-67
2021/07/19 08:32:52;;;;;;;;;;;28.00;53.20;;;;;;5109179;28;19928;-67
2021/07/19 08:35:18;;;;;;;;;;;28.00;52.50;;;;;;5110775;28;19976;-67
2021/07/19 08:37:46;;;;;;;;;;;28.10;52.50;;;;;;5120013;27;19931;-67
2021/07/19 08:40:14;;;;;;;;;;;28.10;52.00;;;;;;5121440;27;20414;-67
2021/07/19 08:42:41;;;;;;;;;;;27.90;52.50;;;;;;5124127;27;19928;-67
2021/07/19 08:45:08;;;;;;;;;;;28.00;53.40;;;;;;5118875;27;19927;-67
2021/07/19 08:47:35;;;;;;;;;;;28.10;52.30;;;;;;5110170;28;20014;-67
2021/07/19 08:50:02;;;;;;;;;;;28.30;52.40;;;;;;5112790;28;20000;-67
2021/07/19 08:52:28;;;;;;;;;;;28.40;50.40;;;;;;5111380;28;19931;-67
2021/07/19 08:54:55;;;;;;;;;;;28.40;50.10;;;;;;5112568;28;20049;-67
2021/07/19 08:57:23;;;;;;;;;;;28.30;50.30;;;;;;5112528;28;19952;-67
2021/07/19 08:59:49;;;;;;;;;;;28.30;50.10;;;;;;5112429;28;19949;-67
2021/07/19 09:02:16;;;;;;;;;;;28.30;50.10;;;;;;5112354;28;20425;-67
2021/07/19 09:04:42;;;;;;;;;;;28.20;50.10;;;;;;5111420;28;19984;-67
2021/07/19 09:07:09;;;;;;;;;;;28.20;49.60;;;;;;5112118;28;19931;-67
2021/07/19 09:09:35;;;;;;;;;;;28.30;50.60;;;;;;5110377;28;19927;-67
2021/07/19 09:12:06;;;;;;;;;;;28.50;49.00;;;;;;5111896;28;20002;-67
2021/07/19 09:14:33;;;;;;;;;;;28.50;48.90;;;;;;5109643;28;20416;-67
2021/07/19 09:16:59;;;;;;;;;;;28.50;49.60;;;;;;5129062;27;19931;-67
2021/07/19 09:19:26;;;;;;;;;;;28.50;49.00;;;;;;5122858;27;19939;-67
2021/07/19 09:21:55;;;;;;;;;;;28.40;49.80;;;;;;5130599;27;20018;-67
2021/07/19 09:24:22;;;;;;;;;;;28.30;48.10;;;;;;5113442;27;19953;-67
2021/07/19 09:26:49;;;;;;;;;;;28.30;49.90;;;;;;5106409;28;19970;-67
2021/07/19 09:29:18;;;;;;;;;;;28.40;49.60;;;;;;5111184;27;20015;-67
2021/07/19 09:31:46;;;;;;;;;;;28.60;49.10;;;;;;5123391;27;19934;-67
2021/07/19 09:34:13;;;;;;;;;;;28.70;48.30;;;;;;5110245;28;19967;-67
2021/07/19 09:37:03;;;;;;;;;;;28.80;48.90;;;;;;5111157;28;19970;-67
2021/07/19 09:39:30;;;;;;;;;;;28.90;48.90;;;;;;5102851;28;20076;-67
2021/07/19 09:42:03;;;;;;;;;;;29.10;47.30;;;;;;5103101;28;19928;-67
2021/07/19 09:44:29;;;;;;;;;;;29.20;48.60;;;;;;5111342;28;19927;-67
2021/07/19 09:47:04;;;;;;;;;;;29.60;46.40;;;;;;5109912;28;20338;-67
2021/07/19 09:49:31;;;;;;;;;;;30.00;46.00;;;;;;5111298;28;20072;-67
2021/07/19 09:51:58;;;;;;;;;;;30.40;43.90;;;;;;5111063;28;19934;-67
2021/07/19 09:54:31;;;;;;;;;;;30.70;44.30;;;;;;5111046;28;20676;-67
2021/07/19 09:57:00;;;;;;;;;;;30.70;43.20;;;;;;5111116;28;19928;-67
2021/07/19 09:59:26;;;;;;;;;;;30.90;42.60;;;;;;5110891;28;19972;-67
2021/07/19 10:01:52;;;;;;;;;;;31.10;42.70;;;;;;5110707;28;20411;-68
2021/07/19 10:04:20;;;;;;;;;;;30.80;41.80;;;;;;5108884;28;19939;-67
2021/07/19 10:06:48;;;;;;;;;;;30.70;42.60;;;;;;5111584;28;20061;-67
2021/07/19 10:09:14;;;;;;;;;;;30.80;42.90;;;;;;5110204;28;19928;-67
2021/07/19 10:11:43;;;;;;;;;;;30.90;41.80;;;;;;5101973;28;19931;-67
2021/07/19 10:14:09;;;;;;;;;;;30.90;42.00;;;;;;5110784;28;20047;-67
2021/07/19 10:16:36;;;;;;;;;;;31.00;41.80;;;;;;5111207;28;20031;-67
2021/07/19 10:19:04;;;;;;;;;;;31.30;40.00;;;;;;5110552;28;19976;-67
2021/07/19 10:21:31;;;;;;;;;;;31.20;38.80;;;;;;5110282;28;20015;-67
2021/07/19 10:24:05;;;;;;;;;;;31.10;40.00;;;;;;5109689;28;19927;-67
2021/07/19 10:26:31;;;;;;;;;;;31.00;39.20;;;;;;5110622;28;19934;-67
2021/07/19 10:28:58;;;;;;;;;;;30.90;39.40;;;;;;5110531;28;19956;-67
2021/07/19 10:31:25;;;;;;;;;;;30.90;39.50;;;;;;5110568;28;20050;-67
2021/07/19 10:33:52;;;;;;;;;;;30.80;39.40;;;;;;5110561;28;20394;-67
2021/07/19 10:36:23;;;;;;;;;;;30.50;39.20;;;;;;5110276;28;19935;-67
2021/07/19 10:38:50;;;;;;;;;;;30.10;41.10;;;;;;5110660;28;19932;-67
2021/07/19 10:41:22;;;;;;;;;;;29.90;42.20;;;;;;5106067;28;20011;-67
2021/07/19 10:43:57;;;;;;;;;;;29.70;43.50;;;;;;5110813;27;19983;-67
2021/07/19 10:46:25;;;;;;;;;;;29.70;41.40;;;;;;5104022;28;20468;-67
2021/07/19 10:49:01;;;;;;;;;;;29.40;41.80;;;;;;5110419;28;19939;-67
2021/07/19 10:51:36;;;;;;;;;;;29.10;42.80;;;;;;5103484;28;19972;-67
2021/07/19 10:54:10;;;;;;;;;;;28.90;42.80;;;;;;5123687;27;19927;-67
2021/07/19 10:56:36;;;;;;;;;;;28.80;44.70;;;;;;5100769;28;20010;-67
2021/07/19 10:59:02;;;;;;;;;;;28.70;45.30;;;;;;5109197;28;20314;-69
2021/07/19 11:01:29;;;;;;;;;;;28.80;44.20;;;;;;5098479;28;20014;-67
2021/07/19 11:03:57;;;;;;;;;;;28.90;42.90;;;;;;5109500;28;19927;-67
2021/07/19 11:06:31;;;;;;;;;;;29.10;42.90;;;;;;5109990;28;20454;-67
2021/07/19 11:08:57;;;;;;;;;;;29.10;44.90;;;;;;5108925;28;19927;-67
2021/07/19 11:11:25;;;;;;;;;;;29.40;43.50;;;;;;5109511;28;20459;-67
2021/07/19 11:13:56;;;;;;;;;;;29.40;43.30;;;;;;5109920;28;19986;-67
2021/07/19 11:16:22;;;;;;;;;;;29.40;43.20;;;;;;5095025;28;19927;-68
2021/07/19 11:18:52;;;;;;;;;;;29.30;45.50;;;;;;5113581;27;19980;-67
2021/07/19 11:21:26;;;;;;;;;;;29.40;47.50;;;;;;5116698;27;19966;-67
2021/07/19 11:23:52;;;;;;;;;;;29.60;46.60;;;;;;5127458;27;20039;-67
2021/07/19 11:26:27;;;;;;;;;;;29.60;45.70;;;;;;5124870;27;19927;-67
2021/07/19 11:28:57;;;;;;;;;;;29.80;46.30;;;;;;5129459;27;19927;-67
2021/07/19 11:31:29;;;;;;;;;;;30.00;46.50;;;;;;5120160;27;20647;-67
2021/07/19 11:33:58;;;;;;;;;;;30.10;44.90;;;;;;5116996;27;19928;-67
2021/07/19 11:36:26;;;;;;;;;;;30.20;44.30;;;;;;5112678;27;19928;-67
2021/07/19 11:38:58;;;;;;;;;;;30.30;42.90;;;;;;5108751;28;20398;-67
2021/07/19 11:41:28;;;;;;;;;;;30.30;44.10;;;;;;5117687;27;19949;-67
2021/07/19 11:43:57;;;;;;;;;;;30.40;43.50;;;;;;5109098;28;20400;-67
2021/07/19 11:46:24;;;;;;;;;;;30.50;43.30;;;;;;5108633;28;20350;-67
2021/07/19 11:48:54;;;;;;;;;;;30.50;41.60;;;;;;5108531;28;20386;-67
2021/07/19 11:51:21;;;;;;;;;;;30.50;41.10;;;;;;5099674;28;19928;-67
2021/07/19 11:53:47;;;;;;;;;;;30.50;40.90;;;;;;5109202;28;19928;-67
2021/07/19 11:56:16;;;;;;;;;;;30.40;40.80;;;;;;5108917;28;20014;-67
2021/07/19 11:58:49;;;;;;;;;;;30.30;41.00;;;;;;5108939;28;19928;-67
2021/07/19 12:01:22;;;;;;;;;;;30.10;42.40;;;;;;5107934;28;20027;-67
2021/07/19 12:03:58;;;;;;;;;;;30.00;42.90;;;;;;5107474;28;19936;-67
2021/07/19 12:06:24;;;;;;;;;;;30.10;43.30;;;;;;5097029;28;20247;-67
2021/07/19 12:08:52;;;;;;;;;;;30.20;43.60;;;;;;5108561;28;20006;-67
2021/07/19 12:11:18;;;;;;;;;;;30.40;41.30;;;;;;5104550;28;19927;-67
2021/07/19 12:13:45;;;;;;;;;;;30.40;41.10;;;;;;5112940;28;20403;-67
2021/07/19 12:16:12;;;;;;;;;;;30.40;40.80;;;;;;5112563;28;20399;-67
2021/07/19 12:18:39;;;;;;;;;;;30.40;40.50;;;;;;5113035;28;20415;-67
2021/07/19 12:21:07;;;;;;;;;;;30.40;40.40;;;;;;5111293;28;20425;-67
2021/07/19 12:23:39;;;;;;;;;;;30.30;40.00;;;;;;5113058;28;19934;-67
2021/07/19 12:26:06;;;;;;;;;;;30.30;42.00;;;;;;5112582;28;19928;-67
2021/07/19 12:28:32;;;;;;;;;;;30.20;41.10;;;;;;5112114;28;19997;-67
2021/07/19 12:31:12;;;;;;;;;;;30.20;41.20;;;;;;5111938;28;19928;-67
2021/07/19 12:33:38;;;;;;;;;;;30.20;40.90;;;;;;5101022;28;19973;-67
2021/07/19 12:36:04;;;;;;;;;;;30.10;42.00;;;;;;5112424;28;19927;-67
2021/07/19 12:38:30;;;;;;;;;;;30.10;43.00;;;;;;5112193;28;20450;-67
2021/07/19 12:40:57;;;;;;;;;;;30.20;42.20;;;;;;5110473;28;19931;-67
2021/07/19 12:43:23;;;;;;;;;;;30.20;40.30;;;;;;5106462;28;19927;-67
2021/07/19 12:45:50;;;;;;;;;;;30.20;41.60;;;;;;5112312;28;19931;-67
2021/07/19 12:48:16;;;;;;;;;;;30.20;42.60;;;;;;5112478;28;19924;-67
2021/07/19 12:50:42;;;;;;;;;;;30.20;41.60;;;;;;5112098;28;20328;-67
2021/07/19 12:53:12;;;;;;;;;;;30.30;39.80;;;;;;5112721;28;19927;-67
2021/07/19 12:55:38;;;;;;;;;;;30.40;39.70;;;;;;5112117;28;19974;-67
2021/07/19 12:58:05;;;;;;;;;;;30.30;40.10;;;;;;5112352;28;19935;-67
2021/07/19 13:00:31;;;;;;;;;;;30.30;39.60;;;;;;5093692;28;20469;-67
2021/07/19 13:02:59;;;;;;;;;;;30.30;42.10;;;;;;5109903;28;20028;-67
2021/07/19 13:05:25;;;;;;;;;;;30.40;43.20;;;;;;5111902;28;20315;-67
2021/07/19 13:07:51;;;;;;;;;;;30.50;43.30;;;;;;5111963;28;20413;-67
2021/07/19 13:10:23;;;;;;;;;;;30.50;44.90;;;;;;5111496;28;19972;-67
2021/07/19 13:12:57;;;;;;;;;;;30.60;44.90;;;;;;5115226;27;20027;-67
2021/07/19 13:15:27;;;;;;;;;;;30.70;43.90;;;;;;5111758;28;20009;-67
2021/07/19 13:18:01;;;;;;;;;;;30.80;43.70;;;;;;5111747;28;19932;-67
2021/07/19 13:20:27;;;;;;;;;;;30.80;39.60;;;;;;5111247;28;19980;-67
2021/07/19 13:22:53;;;;;;;;;;;30.70;40.80;;;;;;5093027;28;19963;-67
2021/07/19 13:25:21;;;;;;;;;;;30.70;41.70;;;;;;5110897;28;19931;-67
2021/07/19 13:27:47;;;;;;;;;;;30.70;41.30;;;;;;5111472;28;20410;-67
2021/07/19 13:30:14;;;;;;;;;;;30.60;42.10;;;;;;5110164;28;19971;-67
2021/07/19 13:32:42;;;;;;;;;;;30.60;42.10;;;;;;5111365;28;19936;-67
2021/07/19 13:35:10;;;;;;;;;;;30.70;42.50;;;;;;5110953;28;19966;-67
2021/07/19 13:37:39;;;;;;;;;;;30.70;43.10;;;;;;5121544;27;19928;-67
2021/07/19 13:40:06;;;;;;;;;;;30.80;42.10;;;;;;5106337;28;20014;-67
2021/07/19 13:42:33;;;;;;;;;;;30.70;40.00;;;;;;5108737;28;20060;-67
2021/07/19 13:44:59;;;;;;;;;;;30.80;38.90;;;;;;5109518;28;20462;-67
2021/07/19 13:47:25;;;;;;;;;;;30.80;36.80;;;;;;5110183;28;19974;-67
2021/07/19 13:49:52;;;;;;;;;;;30.80;37.60;;;;;;5110957;28;19935;-67
2021/07/19 13:52:19;;;;;;;;;;;30.70;37.40;;;;;;5110965;28;20014;-68
2021/07/19 13:54:45;;;;;;;;;;;30.70;37.10;;;;;;5111530;28;19971;-67
2021/07/19 13:57:11;;;;;;;;;;;30.70;36.00;;;;;;5111160;28;20608;-67
2021/07/19 13:59:37;;;;;;;;;;;30.60;37.70;;;;;;5111195;28;19963;-67
2021/07/19 14:02:04;;;;;;;;;;;30.60;39.10;;;;;;5110552;28;19931;-67
2021/07/19 14:04:31;;;;;;;;;;;30.70;38.70;;;;;;5110138;28;20022;-67
2021/07/19 14:06:57;;;;;;;;;;;30.60;37.10;;;;;;5110735;28;19935;-67
2021/07/19 14:09:24;;;;;;;;;;;30.70;37.30;;;;;;5115682;27;19928;-67
2021/07/19 14:11:51;;;;;;;;;;;30.70;36.80;;;;;;5089060;28;20006;-67
2021/07/19 14:14:17;;;;;;;;;;;30.60;37.90;;;;;;5110771;28;19935;-67
2021/07/19 14:16:43;;;;;;;;;;;30.50;36.70;;;;;;5111086;28;19980;-67